Accueil
METAR-TAF:

METAR-TAF

Aéroports :

Aéroport de Toussus-le-Noble

Toussus-le-Noble, France

latitude: 48-46N, longitude: 002-06E, altitude: 164 m

Observation

Le bulletin a été fait il y a 31 minutes, à 03:00 UTC
Vent 3 kt de sud/sud-ouest
Température 13°C
Humidité 94%
Pression 1015 hPa
Visibilité 10 km ou plus
pas de nuages en-dessous de 1500 mètres et pas de cumulonimbus.

METAR: LFPN 020300Z AUTO 21003KT CAVOK 13/12 Q1015

Heure: 05:31 (03:31 UTC)

Prévision

Le bulletin a été fait il y a 10 heures et 31 minutes, à 17:00 UTC
Prévision valable du 01 à 18 UTC au 02 à 03 UTC
Vent 8 kt de ouest
Visibilité 10 km ou plus
pas de nuages en-dessous de 1500 mètres et pas de cumulonimbus.
Temporairement
du 01 à 18 UTC au 01 à 21 UTC
Visibilité: 4000 m
Nuages épars à une hauteur de 4000 ft, Cumulus congestus.
faibles averses de pluie

TAF: LFPN 011700Z 0118/0203 27008KT CAVOK TEMPO 0118/0121 4000 -SHRA SCT040TCU

Observations et prévisions météorologiques de plus de 4000 aéroports (messages METAR et TAF).

Les stations disponibles sont représentées par des disques jaunes et rouges sur la carte.

Passer la souris dessus pour voir le nom de la station.

Cliquer dessus pour voir les observations et prévisions météorologiques.

Pour changer de carte: cliquez sur les boutons verts avec une croix noire pour zoomer, sur le bouton vert avec un tiret pour effectuer un zoom arrière, ou sur les flèches vertes pour les cartes adjacentes.


METAR-TAF: